This is the latest recevied weather packets stored in our database for station/object DG4MND-4. If no packets are shown the sender has not sent any weather packets the latest 10 day(s).
| Time | Temp. | Humidity | Pressure | Rain* | Wind** | Luminosity | Snow |
|---|---|---|---|---|---|---|---|
| 1777875670 | 14.44° C | 68% | 1014.6 hPa | 0 mm | - | - | - |
| 1777875063 | 13.33° C | 73% | 1014.5 hPa | 0 mm | - | - | - |
| 1777874460 | 13.33° C | 73% | 1014.6 hPa | 0 mm | - | - | - |
| 1777873856 | 13.89° C | 71% | 1014.6 hPa | 0 mm | - | - | - |
| 1777873253 | 13.33° C | 72% | 1014.6 hPa | 0 mm | - | - | - |
| 1777872650 | 12.22° C | 76% | 1014.6 hPa | 0 mm | - | - | - |
| 1777872050 | 11.67° C | 79% | 1014.6 hPa | 0 mm | - | - | - |
| 1777871443 | 10° C | 84% | 1014.7 hPa | 0 mm | - | - | - |
| 1777870840 | 9.44° C | 87% | 1014.6 hPa | 0 mm | - | - | - |
| 1777870239 | 9.44° C | 88% | 1014.5 hPa | 0 mm | - | - | - |
| 1777869636 | 8.89° C | 89% | 1014.5 hPa | 0 mm | - | - | - |
| 1777869030 | 8.89° C | 89% | 1014.4 hPa | 0 mm | - | - | - |
| 1777868430 | 8.89° C | 89% | 1014.6 hPa | 0 mm | - | - | - |
| 1777867823 | 8.89° C | 89% | 1014.6 hPa | 0 mm | - | - | - |
| 1777867219 | 8.89° C | 87% | 1014.7 hPa | 0 mm | - | - | - |
| 1777866616 | 8.89° C | 87% | 1014.8 hPa | 0 mm | - | - | - |
| 1777866072 | 9.44° C | 85% | 1014.8 hPa | 0 mm | - | - | - |
| 1777865469 | 10° C | 84% | 1014.9 hPa | 0 mm | - | - | - |
| 1777864865 | 10° C | 81% | 1014.8 hPa | 0 mm | - | - | - |
| 1777864261 | 10.56° C | 80% | 1015 hPa | 0 mm | - | - | - |
| 1777863658 | 11.11° C | 79% | 1015 hPa | 0 mm | - | - | - |
| 1777863057 | 11.11° C | 78% | 1014.9 hPa | 0 mm | - | - | - |
| 1777862454 | 11.67° C | 78% | 1014.9 hPa | 0 mm | - | - | - |
| 1777861847 | 11.67° C | 78% | 1014.9 hPa | 0 mm | - | - | - |
| 1777861244 | 11.67° C | 79% | 1014.8 hPa | 0 mm | - | - | - |
* Rain latest hour (hover to see other rain measurements)
** Current wind speed in m/s (hover to see current wind gust speed)